Sl Murrumbidgee — VJN3448 — position and weather

sailwx.info

Track history (hours):
 
Tides and Currents Weather Stations Pressure Air Temp Water Temp Dewpoint Dewpoint Depression Visibility Wind Speed Wind Dir Waves Ship Positions

Sl Murrumbidgee

Last reported at 2018-Jun-24 10:32 UTC. Time now 2018-Jun-24 11:12 UTC.
Position S 27°24' E 153°09'.

Length 24 m; draft 5.4 m.

Type: Tug. MMSI: 503384400.

Date/timePositionNaut miles runAvg speedWind from/ knotsBaromVisibWave heightAir tempDewpointWater temp
2018-Jun-24 10:32S 27°24' E 153°09'0 2.1
2018-Jun-24 10:30S 27°24' E 153°09'2 2.1
2018-Jun-24 09:21S 27°26' E 153°07'2 4.1
2018-Jun-24 08:56S 27°25' E 153°09'3 6.0
2018-Jun-24 08:29S 27°22' E 153°10'0 0.5
2018-Jun-24 07:44S 27°23' E 153°10'0 0.1
2018-Jun-24 07:00S 27°23' E 153°10'0 0.1
2018-Jun-24 06:27S 27°23' E 153°10'0 0.0
2018-Jun-24 05:47S 27°23' E 153°10'0 0.2
2018-Jun-24 04:47S 27°23' E 153°10'1 4.0
2018-Jun-24 04:27S 27°21' E 153°11'1 0.5
2018-Jun-24 02:09S 27°22' E 153°10'0 0.3
2018-Jun-24 01:56S 27°22' E 153°10'2 4.1
2018-Jun-24 01:30S 27°24' E 153°09'0 0.0
2018-Jun-24 01:00S 27°24' E 153°09'0 0.0
2018-Jun-24 00:24S 27°24' E 153°09'0 0.0
2018-Jun-23 21:33S 27°24' E 153°09'0 0.0
2018-Jun-23 18:57S 27°24' E 153°09'0 0.0
2018-Jun-23 16:51S 27°24' E 153°09'0 0.0
2018-Jun-23 10:45S 27°24' E 153°09'0 0.0
2018-Jun-23 10:03S 27°24' E 153°09'0 0.0
2018-Jun-23 10:00S 27°24' E 153°09'0 0.0
2018-Jun-23 09:27S 27°24' E 153°09'0 0.0
2018-Jun-23 09:00S 27°24' E 153°09'0 0.0
2018-Jun-23 08:18S 27°24' E 153°09'0 0.0
2018-Jun-23 07:57S 27°24' E 153°09'0 0.0
2018-Jun-23 07:30S 27°24' E 153°09'0 0.0
2018-Jun-23 07:00S 27°24' E 153°09'0 0.0
2018-Jun-23 06:30S 27°24' E 153°09'0 0.0
2018-Jun-23 06:00S 27°24' E 153°09'0 0.0
2018-Jun-23 05:30S 27°24' E 153°09'1 1.1
2018-Jun-23 05:00S 27°24' E 153°09'1 1.0
2018-Jun-23 04:27S 27°24' E 153°09'0 0.0
2018-Jun-23 03:58S 27°24' E 153°09'0 0.0
2018-Jun-23 03:10S 27°24' E 153°09'0 0.0
2018-Jun-23 02:19S 27°24' E 153°09'0 0.0
2018-Jun-22 20:46S 27°24' E 153°09'0 0.0
2018-Jun-22 19:52S 27°24' E 153°09'0 0.7
2018-Jun-22 19:30S 27°24' E 153°09'1 2.5
2018-Jun-22 18:59S 27°23' E 153°10'1 2.3
2018-Jun-22 18:23S 27°24' E 153°09'0 0.2
2018-Jun-22 17:59S 27°24' E 153°09'0 0.0
2018-Jun-22 17:30S 27°24' E 153°09'0 0.0
2018-Jun-22 16:59S 27°24' E 153°09'0 0.0
2018-Jun-22 15:59S 27°24' E 153°09'0 0.0
2018-Jun-22 15:20S 27°24' E 153°09'0 0.0
2018-Jun-22 15:00S 27°24' E 153°09'0 0.0
2018-Jun-22 13:38S 27°24' E 153°09'0 0.0
2018-Jun-22 13:29S 27°24' E 153°09'0 0.0
2018-Jun-22 12:59S 27°24' E 153°09'0 0.0
2018-Jun-22 12:23S 27°24' E 153°09'0 0.0
2018-Jun-22 12:00S 27°24' E 153°09'0 0.0
2018-Jun-22 11:23S 27°24' E 153°09'0 0.0
2018-Jun-22 10:59S 27°24' E 153°09'0 0.0
2018-Jun-22 10:30S 27°24' E 153°09'1 2.0
2018-Jun-22 09:50S 27°23' E 153°10'1 3.2
2018-Jun-22 09:26S 27°24' E 153°09'0 0.1
2018-Jun-22 08:17S 27°24' E 153°09'0 0.0
2018-Jun-22 07:58S 27°24' E 153°09'0 0.0
2018-Jun-22 06:53S 27°24' E 153°09'0 0.0
2018-Jun-22 06:28S 27°24' E 153°09'2 4.7
2018-Jun-22 06:01S 27°22' E 153°10'0 0.0
2018-Jun-22 05:29S 27°22' E 153°10'0 0.1
2018-Jun-22 04:59S 27°22' E 153°10'0 0.3
2018-Jun-22 04:29S 27°22' E 153°10'1 1.0
2018-Jun-22 03:44S 27°23' E 153°10'0 1.3
2018-Jun-22 03:30S 27°23' E 153°10'1 1.6
2018-Jun-22 02:57S 27°22' E 153°11'2 5.2
2018-Jun-22 02:28S 27°24' E 153°09'0 0.0
2018-Jun-22 01:52S 27°24' E 153°09'0 0.0
2018-Jun-22 01:22S 27°24' E 153°09'0 0.0
2018-Jun-22 00:52S 27°24' E 153°09'0 0.0
2018-Jun-22 00:28S 27°24' E 153°09'0 0.0
2018-Jun-21 22:52S 27°24' E 153°09'0 0.0
2018-Jun-21 22:28S 27°24' E 153°09'0 0.0
2018-Jun-21 21:58S 27°24' E 153°09'0 0.0
2018-Jun-21 21:25S 27°24' E 153°09'0 0.0
2018-Jun-21 20:58S 27°24' E 153°09'0 0.0
2018-Jun-21 20:28S 27°24' E 153°09'0 0.0
2018-Jun-21 19:58S 27°24' E 153°09'0 0.0
2018-Jun-21 19:28S 27°24' E 153°09'0 0.0
2018-Jun-21 18:58S 27°24' E 153°09'0 0.0
2018-Jun-21 18:28S 27°24' E 153°09'0 0.0
2018-Jun-21 17:55S 27°24' E 153°09'0 0.0
2018-Jun-21 02:22S 27°24' E 153°09'0 0.0
2018-Jun-21 01:55S 27°24' E 153°09'0 0.0
2018-Jun-21 01:16S 27°24' E 153°09'0 0.0
2018-Jun-21 00:49S 27°24' E 153°09'0 0.0
2018-Jun-20 07:23S 27°24' E 153°09'1 1.2
2018-Jun-20 06:38S 27°23' E 153°09'1 2.8
2018-Jun-20 06:19S 27°24' E 153°09'0 0.0
2018-Jun-19 23:42S 27°24' E 153°09'1 0.0
2018-Jun-18 06:16S 27°24' E 153°09'1 0.0
2018-Jun-17 17:52S 27°24' E 153°09'0 0.0
2018-Jun-17 11:22S 27°24' E 153°09'0 0.0
2018-Jun-17 10:00S 27°24' E 153°09'0 0.0
2018-Jun-17 09:18S 27°24' E 153°09'0 0.0
2018-Jun-17 09:00S 27°24' E 153°09'0 0.0
2018-Jun-17 08:30S 27°24' E 153°09'0 0.0
2018-Jun-17 08:00S 27°24' E 153°09'0 0.0
2018-Jun-17 07:30S 27°24' E 153°09'0 0.0
2018-Jun-17 07:00S 27°24' E 153°09'0 0.0
2018-Jun-17 06:30S 27°24' E 153°09'0 0.0
2018-Jun-17 06:00S 27°24' E 153°09'2 3.6
2018-Jun-17 05:30S 27°22' E 153°10'0 0.3
2018-Jun-17 04:56S 27°22' E 153°10'3 2.0
2018-Jun-17 03:36S 27°25' E 153°09'0 4.8
2018-Jun-17 03:30S 27°24' E 153°09'0 0.1
2018-Jun-17 00:51S 27°24' E 153°09'0 0.0
2018-Jun-16 23:39S 27°24' E 153°09'0 0.1
2018-Jun-16 23:30S 27°24' E 153°09'0 0.0
2018-Jun-16 23:00S 27°24' E 153°09'0 0.0
2018-Jun-16 22:27S 27°24' E 153°09'0 0.0
2018-Jun-16 22:00S 27°24' E 153°09'0 0.0
2018-Jun-16 21:30S 27°24' E 153°09'0 0.0
2018-Jun-16 21:00S 27°24' E 153°09'0 0.0
2018-Jun-16 20:30S 27°24' E 153°09'0 0.0
2018-Jun-16 20:00S 27°24' E 153°09'0 0.0
2018-Jun-16 19:30S 27°24' E 153°09'0 0.0
2018-Jun-16 19:00S 27°24' E 153°09'0 0.0
2018-Jun-16 18:30S 27°24' E 153°09'0 0.0
2018-Jun-16 18:00S 27°24' E 153°09'0 0.0
2018-Jun-16 17:30S 27°24' E 153°09'0 0.0
2018-Jun-16 17:00S 27°24' E 153°09'0 0.0
2018-Jun-16 16:30S 27°24' E 153°09'0 0.0
2018-Jun-16 16:00S 27°24' E 153°09'0 0.0
2018-Jun-16 15:30S 27°24' E 153°09'0 0.0
2018-Jun-16 15:00S 27°24' E 153°09'0 0.0
2018-Jun-16 14:30S 27°24' E 153°09'0 0.0
2018-Jun-16 14:00S 27°24' E 153°09'0 0.0
2018-Jun-16 13:30S 27°24' E 153°09'0 0.0
2018-Jun-16 13:00S 27°24' E 153°09'0 0.0
2018-Jun-16 12:30S 27°24' E 153°09'0 0.0
2018-Jun-16 12:00S 27°24' E 153°09'0 0.0
2018-Jun-16 11:30S 27°24' E 153°09'0 0.0
2018-Jun-16 11:00S 27°24' E 153°09'0 0.0
2018-Jun-16 10:30S 27°24' E 153°09'0 0.0
2018-Jun-16 10:00S 27°24' E 153°09'2 1.0
2018-Jun-16 08:23S 27°25' E 153°08'2 4.0
2018-Jun-16 08:00S 27°24' E 153°09'0 0.0
2018-Jun-16 07:30S 27°24' E 153°09'0 0.0
2018-Jun-16 06:57S 27°24' E 153°09'0 0.0
2018-Jun-16 06:30S 27°24' E 153°09'0 0.0
2018-Jun-16 06:00S 27°24' E 153°09'0 0.0
2018-Jun-16 05:30S 27°24' E 153°09'0 0.0
2018-Jun-16 05:00S 27°24' E 153°09'1 1.4
2018-Jun-16 04:30S 27°23' E 153°09'2 2.7
2018-Jun-16 03:38S 27°21' E 153°11'1 7.9
2018-Jun-16 03:30S 27°20' E 153°11'4 5.4
2018-Jun-16 02:47S 27°24' E 153°09'0 0.1
2018-Jun-16 02:29S 27°24' E 153°09'0 0.0
2018-Jun-16 01:59S 27°24' E 153°09'0 0.0
2018-Jun-16 01:29S 27°24' E 153°09'0 0.0
2018-Jun-16 00:44S 27°24' E 153°09'0 0.0
2018-Jun-16 00:23S 27°24' E 153°09'0 0.0
2018-Jun-15 23:53S 27°24' E 153°09'0 0.0
2018-Jun-15 23:29S 27°24' E 153°09'0 0.0
2018-Jun-15 22:59S 27°24' E 153°09'0 0.0
2018-Jun-15 22:29S 27°24' E 153°09'0 0.0
2018-Jun-15 21:59S 27°24' E 153°09'0 0.0
2018-Jun-15 21:29S 27°24' E 153°09'0 0.0
2018-Jun-15 20:59S 27°24' E 153°09'0 0.0
2018-Jun-15 20:29S 27°24' E 153°09'0 0.0
2018-Jun-15 19:59S 27°24' E 153°09'0 0.0
2018-Jun-15 19:29S 27°24' E 153°09'0 0.0
2018-Jun-15 18:59S 27°24' E 153°09'0 0.0
2018-Jun-15 18:29S 27°24' E 153°09'0 0.0
2018-Jun-15 17:59S 27°24' E 153°09'0 0.0
2018-Jun-15 17:29S 27°24' E 153°09'0 0.0
2018-Jun-15 16:59S 27°24' E 153°09'0 0.0
2018-Jun-15 16:29S 27°24' E 153°09'0 0.0
2018-Jun-15 15:59S 27°24' E 153°09'0 0.0
2018-Jun-15 15:29S 27°24' E 153°09'0 0.0
2018-Jun-15 14:59S 27°24' E 153°09'0 0.0
2018-Jun-15 14:29S 27°24' E 153°09'0 0.0
2018-Jun-15 13:59S 27°24' E 153°09'0 0.0
2018-Jun-15 13:29S 27°24' E 153°09'0 0.0
2018-Jun-15 12:59S 27°24' E 153°09'0 0.0
2018-Jun-15 12:29S 27°24' E 153°09'0 0.0
2018-Jun-15 11:59S 27°24' E 153°09'0 0.0
2018-Jun-15 11:26S 27°24' E 153°09'0 0.0
2018-Jun-15 10:59S 27°24' E 153°09'0 0.0
2018-Jun-15 10:29S 27°24' E 153°09'0 0.0
2018-Jun-15 09:59S 27°24' E 153°09'0 0.0
2018-Jun-15 09:29S 27°24' E 153°09'0 0.0
2018-Jun-15 08:59S 27°24' E 153°09'0 0.0
2018-Jun-15 08:29S 27°24' E 153°09'0 0.0
2018-Jun-15 07:59S 27°24' E 153°09'0 0.0
2018-Jun-15 07:29S 27°24' E 153°09'0 0.0
2018-Jun-15 06:59S 27°24' E 153°09'0 0.0
2018-Jun-15 06:23S 27°24' E 153°09'0 0.0
2018-Jun-15 05:59S 27°24' E 153°09'0 0.0
2018-Jun-15 05:29S 27°24' E 153°09'0 0.0
2018-Jun-15 04:59S 27°24' E 153°09'0 0.0
2018-Jun-15 04:29S 27°24' E 153°09'0 0.0
2018-Jun-15 03:59S 27°24' E 153°09'0 0.0
2018-Jun-15 03:29S 27°24' E 153°09'0 0.0
2018-Jun-15 02:17S 27°24' E 153°09'0 0.0
2018-Jun-15 01:59S 27°24' E 153°09'0 0.0
2018-Jun-15 01:29S 27°24' E 153°09'0 0.0
2018-Jun-15 00:56S 27°24' E 153°09'0 0.0
2018-Jun-15 00:26S 27°24' E 153°09'0 0.0
2018-Jun-14 23:59S 27°24' E 153°09'0 0.0
2018-Jun-14 23:20S 27°24' E 153°09'0 0.0
2018-Jun-14 22:59S 27°24' E 153°09'0 0.0
2018-Jun-14 22:29S 27°24' E 153°09'0 0.0
2018-Jun-14 21:59S 27°24' E 153°09'0 0.0
2018-Jun-14 21:29S 27°24' E 153°09'0 0.0
2018-Jun-14 20:59S 27°24' E 153°09'0 0.0
2018-Jun-14 20:29S 27°24' E 153°09'0 0.0
2018-Jun-14 19:59S 27°24' E 153°09'0 0.0
2018-Jun-14 19:29S 27°24' E 153°09'0 0.0
2018-Jun-14 18:59S 27°24' E 153°09'0 0.0
2018-Jun-14 18:29S 27°24' E 153°09'0 0.0
2018-Jun-14 17:59S 27°24' E 153°09'0 0.0
2018-Jun-14 17:29S 27°24' E 153°09'0 0.0
2018-Jun-14 16:59S 27°24' E 153°09'0 0.0
2018-Jun-14 16:29S 27°24' E 153°09'0 0.0
2018-Jun-14 15:59S 27°24' E 153°09'0 0.0
2018-Jun-14 15:29S 27°24' E 153°09'0 0.0
2018-Jun-14 14:59S 27°24' E 153°09'0 0.0
2018-Jun-14 14:29S 27°24' E 153°09'0 0.0
2018-Jun-14 13:59S 27°24' E 153°09'0 0.0
2018-Jun-14 13:29S 27°24' E 153°09'0 0.0
2018-Jun-14 12:56S 27°24' E 153°09'0 0.0
2018-Jun-14 12:29S 27°24' E 153°09'0 0.0
2018-Jun-14 11:59S 27°24' E 153°09'0 0.0
2018-Jun-14 11:29S 27°24' E 153°09'0 0.0
2018-Jun-14 10:59S 27°24' E 153°09'  
Track history (hours):
 
Tides and Currents Weather Stations Pressure Air Temp Water Temp Dewpoint Dewpoint Depression Visibility Wind Speed Wind Dir Waves Ship Positions

Sl Murrumbidgee

Last reported at 2018-Jun-24 10:32 UTC. Time now 2018-Jun-24 11:12 UTC.
Position S 27°24' E 153°09'.

Length 24 m; draft 5.4 m.

Type: Tug. MMSI: 503384400.

Date/timePositionNaut miles runAvg speedWind from/ knotsBaromVisibWave heightAir tempDewpointWater temp
2018-Jun-24 10:32S 27°24' E 153°09'0 2.1
2018-Jun-24 10:30S 27°24' E 153°09'2 2.1
2018-Jun-24 09:21S 27°26' E 153°07'2 4.1
2018-Jun-24 08:56S 27°25' E 153°09'3 6.0
2018-Jun-24 08:29S 27°22' E 153°10'0 0.5
2018-Jun-24 07:44S 27°23' E 153°10'0 0.1
2018-Jun-24 07:00S 27°23' E 153°10'0 0.1
2018-Jun-24 06:27S 27°23' E 153°10'0 0.0
2018-Jun-24 05:47S 27°23' E 153°10'0 0.2
2018-Jun-24 04:47S 27°23' E 153°10'1 4.0
2018-Jun-24 04:27S 27°21' E 153°11'1 0.5
2018-Jun-24 02:09S 27°22' E 153°10'0 0.3
2018-Jun-24 01:56S 27°22' E 153°10'2 4.1
2018-Jun-24 01:30S 27°24' E 153°09'0 0.0
2018-Jun-24 01:00S 27°24' E 153°09'0 0.0
2018-Jun-24 00:24S 27°24' E 153°09'0 0.0
2018-Jun-23 21:33S 27°24' E 153°09'0 0.0
2018-Jun-23 18:57S 27°24' E 153°09'0 0.0
2018-Jun-23 16:51S 27°24' E 153°09'0 0.0
2018-Jun-23 10:45S 27°24' E 153°09'0 0.0
2018-Jun-23 10:03S 27°24' E 153°09'0 0.0
2018-Jun-23 10:00S 27°24' E 153°09'0 0.0
2018-Jun-23 09:27S 27°24' E 153°09'0 0.0
2018-Jun-23 09:00S 27°24' E 153°09'0 0.0
2018-Jun-23 08:18S 27°24' E 153°09'0 0.0
2018-Jun-23 07:57S 27°24' E 153°09'0 0.0
2018-Jun-23 07:30S 27°24' E 153°09'0 0.0
2018-Jun-23 07:00S 27°24' E 153°09'0 0.0
2018-Jun-23 06:30S 27°24' E 153°09'0 0.0
2018-Jun-23 06:00S 27°24' E 153°09'0 0.0
2018-Jun-23 05:30S 27°24' E 153°09'1 1.1
2018-Jun-23 05:00S 27°24' E 153°09'1 1.0
2018-Jun-23 04:27S 27°24' E 153°09'0 0.0
2018-Jun-23 03:58S 27°24' E 153°09'0 0.0
2018-Jun-23 03:10S 27°24' E 153°09'0 0.0
2018-Jun-23 02:19S 27°24' E 153°09'0 0.0
2018-Jun-22 20:46S 27°24' E 153°09'0 0.0
2018-Jun-22 19:52S 27°24' E 153°09'0 0.7
2018-Jun-22 19:30S 27°24' E 153°09'1 2.5
2018-Jun-22 18:59S 27°23' E 153°10'1 2.3
2018-Jun-22 18:23S 27°24' E 153°09'0 0.2
2018-Jun-22 17:59S 27°24' E 153°09'0 0.0
2018-Jun-22 17:30S 27°24' E 153°09'0 0.0
2018-Jun-22 16:59S 27°24' E 153°09'0 0.0
2018-Jun-22 15:59S 27°24' E 153°09'0 0.0
2018-Jun-22 15:20S 27°24' E 153°09'0 0.0
2018-Jun-22 15:00S 27°24' E 153°09'0 0.0
2018-Jun-22 13:38S 27°24' E 153°09'0 0.0
2018-Jun-22 13:29S 27°24' E 153°09'0 0.0
2018-Jun-22 12:59S 27°24' E 153°09'0 0.0
2018-Jun-22 12:23S 27°24' E 153°09'0 0.0
2018-Jun-22 12:00S 27°24' E 153°09'0 0.0
2018-Jun-22 11:23S 27°24' E 153°09'0 0.0
2018-Jun-22 10:59S 27°24' E 153°09'0 0.0
2018-Jun-22 10:30S 27°24' E 153°09'1 2.0
2018-Jun-22 09:50S 27°23' E 153°10'1 3.2
2018-Jun-22 09:26S 27°24' E 153°09'0 0.1
2018-Jun-22 08:17S 27°24' E 153°09'0 0.0
2018-Jun-22 07:58S 27°24' E 153°09'0 0.0
2018-Jun-22 06:53S 27°24' E 153°09'0 0.0
2018-Jun-22 06:28S 27°24' E 153°09'2 4.7
2018-Jun-22 06:01S 27°22' E 153°10'0 0.0
2018-Jun-22 05:29S 27°22' E 153°10'0 0.1
2018-Jun-22 04:59S 27°22' E 153°10'0 0.3
2018-Jun-22 04:29S 27°22' E 153°10'1 1.0
2018-Jun-22 03:44S 27°23' E 153°10'0 1.3
2018-Jun-22 03:30S 27°23' E 153°10'1 1.6
2018-Jun-22 02:57S 27°22' E 153°11'2 5.2
2018-Jun-22 02:28S 27°24' E 153°09'0 0.0
2018-Jun-22 01:52S 27°24' E 153°09'0 0.0
2018-Jun-22 01:22S 27°24' E 153°09'0 0.0
2018-Jun-22 00:52S 27°24' E 153°09'0 0.0
2018-Jun-22 00:28S 27°24' E 153°09'0 0.0
2018-Jun-21 22:52S 27°24' E 153°09'0 0.0
2018-Jun-21 22:28S 27°24' E 153°09'0 0.0
2018-Jun-21 21:58S 27°24' E 153°09'0 0.0
2018-Jun-21 21:25S 27°24' E 153°09'0 0.0
2018-Jun-21 20:58S 27°24' E 153°09'0 0.0
2018-Jun-21 20:28S 27°24' E 153°09'0 0.0
2018-Jun-21 19:58S 27°24' E 153°09'0 0.0
2018-Jun-21 19:28S 27°24' E 153°09'0 0.0
2018-Jun-21 18:58S 27°24' E 153°09'0 0.0
2018-Jun-21 18:28S 27°24' E 153°09'0 0.0
2018-Jun-21 17:55S 27°24' E 153°09'0 0.0
2018-Jun-21 02:22S 27°24' E 153°09'0 0.0
2018-Jun-21 01:55S 27°24' E 153°09'0 0.0
2018-Jun-21 01:16S 27°24' E 153°09'0 0.0
2018-Jun-21 00:49S 27°24' E 153°09'0 0.0
2018-Jun-20 07:23S 27°24' E 153°09'1 1.2
2018-Jun-20 06:38S 27°23' E 153°09'1 2.8
2018-Jun-20 06:19S 27°24' E 153°09'0 0.0
2018-Jun-19 23:42S 27°24' E 153°09'1 0.0
2018-Jun-18 06:16S 27°24' E 153°09'1 0.0
2018-Jun-17 17:52S 27°24' E 153°09'0 0.0
2018-Jun-17 11:22S 27°24' E 153°09'0 0.0
2018-Jun-17 10:00S 27°24' E 153°09'0 0.0
2018-Jun-17 09:18S 27°24' E 153°09'0 0.0
2018-Jun-17 09:00S 27°24' E 153°09'0 0.0
2018-Jun-17 08:30S 27°24' E 153°09'0 0.0
2018-Jun-17 08:00S 27°24' E 153°09'0 0.0
2018-Jun-17 07:30S 27°24' E 153°09'0 0.0
2018-Jun-17 07:00S 27°24' E 153°09'0 0.0
2018-Jun-17 06:30S 27°24' E 153°09'0 0.0
2018-Jun-17 06:00S 27°24' E 153°09'2 3.6
2018-Jun-17 05:30S 27°22' E 153°10'0 0.3
2018-Jun-17 04:56S 27°22' E 153°10'3 2.0
2018-Jun-17 03:36S 27°25' E 153°09'0 4.8
2018-Jun-17 03:30S 27°24' E 153°09'0 0.1
2018-Jun-17 00:51S 27°24' E 153°09'0 0.0
2018-Jun-16 23:39S 27°24' E 153°09'0 0.1
2018-Jun-16 23:30S 27°24' E 153°09'0 0.0
2018-Jun-16 23:00S 27°24' E 153°09'0 0.0
2018-Jun-16 22:27S 27°24' E 153°09'0 0.0
2018-Jun-16 22:00S 27°24' E 153°09'0 0.0
2018-Jun-16 21:30S 27°24' E 153°09'0 0.0
2018-Jun-16 21:00S 27°24' E 153°09'0 0.0
2018-Jun-16 20:30S 27°24' E 153°09'0 0.0
2018-Jun-16 20:00S 27°24' E 153°09'0 0.0
2018-Jun-16 19:30S 27°24' E 153°09'0 0.0
2018-Jun-16 19:00S 27°24' E 153°09'0 0.0
2018-Jun-16 18:30S 27°24' E 153°09'0 0.0
2018-Jun-16 18:00S 27°24' E 153°09'0 0.0
2018-Jun-16 17:30S 27°24' E 153°09'0 0.0
2018-Jun-16 17:00S 27°24' E 153°09'0 0.0
2018-Jun-16 16:30S 27°24' E 153°09'0 0.0
2018-Jun-16 16:00S 27°24' E 153°09'0 0.0
2018-Jun-16 15:30S 27°24' E 153°09'0 0.0
2018-Jun-16 15:00S 27°24' E 153°09'0 0.0
2018-Jun-16 14:30S 27°24' E 153°09'0 0.0
2018-Jun-16 14:00S 27°24' E 153°09'0 0.0
2018-Jun-16 13:30S 27°24' E 153°09'0 0.0
2018-Jun-16 13:00S 27°24' E 153°09'0 0.0
2018-Jun-16 12:30S 27°24' E 153°09'0 0.0
2018-Jun-16 12:00S 27°24' E 153°09'0 0.0
2018-Jun-16 11:30S 27°24' E 153°09'0 0.0
2018-Jun-16 11:00S 27°24' E 153°09'0 0.0
2018-Jun-16 10:30S 27°24' E 153°09'0 0.0
2018-Jun-16 10:00S 27°24' E 153°09'2 1.0
2018-Jun-16 08:23S 27°25' E 153°08'2 4.0
2018-Jun-16 08:00S 27°24' E 153°09'0 0.0
2018-Jun-16 07:30S 27°24' E 153°09'0 0.0
2018-Jun-16 06:57S 27°24' E 153°09'0 0.0
2018-Jun-16 06:30S 27°24' E 153°09'0 0.0
2018-Jun-16 06:00S 27°24' E 153°09'0 0.0
2018-Jun-16 05:30S 27°24' E 153°09'0 0.0
2018-Jun-16 05:00S 27°24' E 153°09'1 1.4
2018-Jun-16 04:30S 27°23' E 153°09'2 2.7
2018-Jun-16 03:38S 27°21' E 153°11'1 7.9
2018-Jun-16 03:30S 27°20' E 153°11'4 5.4
2018-Jun-16 02:47S 27°24' E 153°09'0 0.1
2018-Jun-16 02:29S 27°24' E 153°09'0 0.0
2018-Jun-16 01:59S 27°24' E 153°09'0 0.0
2018-Jun-16 01:29S 27°24' E 153°09'0 0.0
2018-Jun-16 00:44S 27°24' E 153°09'0 0.0
2018-Jun-16 00:23S 27°24' E 153°09'0 0.0
2018-Jun-15 23:53S 27°24' E 153°09'0 0.0
2018-Jun-15 23:29S 27°24' E 153°09'0 0.0
2018-Jun-15 22:59S 27°24' E 153°09'0 0.0
2018-Jun-15 22:29S 27°24' E 153°09'0 0.0
2018-Jun-15 21:59S 27°24' E 153°09'0 0.0
2018-Jun-15 21:29S 27°24' E 153°09'0 0.0
2018-Jun-15 20:59S 27°24' E 153°09'0 0.0
2018-Jun-15 20:29S 27°24' E 153°09'0 0.0
2018-Jun-15 19:59S 27°24' E 153°09'0 0.0
2018-Jun-15 19:29S 27°24' E 153°09'0 0.0
2018-Jun-15 18:59S 27°24' E 153°09'0 0.0
2018-Jun-15 18:29S 27°24' E 153°09'0 0.0
2018-Jun-15 17:59S 27°24' E 153°09'0 0.0
2018-Jun-15 17:29S 27°24' E 153°09'0 0.0
2018-Jun-15 16:59S 27°24' E 153°09'0 0.0
2018-Jun-15 16:29S 27°24' E 153°09'0 0.0
2018-Jun-15 15:59S 27°24' E 153°09'0 0.0
2018-Jun-15 15:29S 27°24' E 153°09'0 0.0
2018-Jun-15 14:59S 27°24' E 153°09'0 0.0
2018-Jun-15 14:29S 27°24' E 153°09'0 0.0
2018-Jun-15 13:59S 27°24' E 153°09'0 0.0
2018-Jun-15 13:29S 27°24' E 153°09'0 0.0
2018-Jun-15 12:59S 27°24' E 153°09'0 0.0
2018-Jun-15 12:29S 27°24' E 153°09'0 0.0
2018-Jun-15 11:59S 27°24' E 153°09'0 0.0
2018-Jun-15 11:26S 27°24' E 153°09'0 0.0
2018-Jun-15 10:59S 27°24' E 153°09'0 0.0
2018-Jun-15 10:29S 27°24' E 153°09'0 0.0
2018-Jun-15 09:59S 27°24' E 153°09'0 0.0
2018-Jun-15 09:29S 27°24' E 153°09'0 0.0
2018-Jun-15 08:59S 27°24' E 153°09'0 0.0
2018-Jun-15 08:29S 27°24' E 153°09'0 0.0
2018-Jun-15 07:59S 27°24' E 153°09'0 0.0
2018-Jun-15 07:29S 27°24' E 153°09'0 0.0
2018-Jun-15 06:59S 27°24' E 153°09'0 0.0
2018-Jun-15 06:23S 27°24' E 153°09'0 0.0
2018-Jun-15 05:59S 27°24' E 153°09'0 0.0
2018-Jun-15 05:29S 27°24' E 153°09'0 0.0
2018-Jun-15 04:59S 27°24' E 153°09'0 0.0
2018-Jun-15 04:29S 27°24' E 153°09'0 0.0
2018-Jun-15 03:59S 27°24' E 153°09'0 0.0
2018-Jun-15 03:29S 27°24' E 153°09'0 0.0
2018-Jun-15 02:17S 27°24' E 153°09'0 0.0
2018-Jun-15 01:59S 27°24' E 153°09'0 0.0
2018-Jun-15 01:29S 27°24' E 153°09'0 0.0
2018-Jun-15 00:56S 27°24' E 153°09'0 0.0
2018-Jun-15 00:26S 27°24' E 153°09'0 0.0
2018-Jun-14 23:59S 27°24' E 153°09'0 0.0
2018-Jun-14 23:20S 27°24' E 153°09'0 0.0
2018-Jun-14 22:59S 27°24' E 153°09'0 0.0
2018-Jun-14 22:29S 27°24' E 153°09'0 0.0
2018-Jun-14 21:59S 27°24' E 153°09'0 0.0
2018-Jun-14 21:29S 27°24' E 153°09'0 0.0
2018-Jun-14 20:59S 27°24' E 153°09'0 0.0
2018-Jun-14 20:29S 27°24' E 153°09'0 0.0
2018-Jun-14 19:59S 27°24' E 153°09'0 0.0
2018-Jun-14 19:29S 27°24' E 153°09'0 0.0
2018-Jun-14 18:59S 27°24' E 153°09'0 0.0
2018-Jun-14 18:29S 27°24' E 153°09'0 0.0
2018-Jun-14 17:59S 27°24' E 153°09'0 0.0
2018-Jun-14 17:29S 27°24' E 153°09'0 0.0
2018-Jun-14 16:59S 27°24' E 153°09'0 0.0
2018-Jun-14 16:29S 27°24' E 153°09'0 0.0
2018-Jun-14 15:59S 27°24' E 153°09'0 0.0
2018-Jun-14 15:29S 27°24' E 153°09'0 0.0
2018-Jun-14 14:59S 27°24' E 153°09'0 0.0
2018-Jun-14 14:29S 27°24' E 153°09'0 0.0
2018-Jun-14 13:59S 27°24' E 153°09'0 0.0
2018-Jun-14 13:29S 27°24' E 153°09'0 0.0
2018-Jun-14 12:56S 27°24' E 153°09'0 0.0
2018-Jun-14 12:29S 27°24' E 153°09'0 0.0
2018-Jun-14 11:59S 27°24' E 153°09'0 0.0
2018-Jun-14 11:29S 27°24' E 153°09'0 0.0
2018-Jun-14 10:59S 27°24' E 153°09'  

Dump ship's entire track history